Time;durP1;ratioP1;P1;durP2;ratioP2;P2;SDS_P1;SDS_P2;PMS_P1;PMS_P2;Temp;Humidity;BMP_temperature;BMP_pressure;BME280_temperature;BME280_humidity;BME280_pressure;Samples;Min_cycle;Max_cycle;Signal;HPM_P1;HPM_P2
2023/07/06 00:01:07;;;;;;;5.30;3.20;;;15.20;99.90;;;;;;5004622;28;20462;-75
2023/07/06 00:03:33;;;;;;;5.00;3.30;;;15.20;99.90;;;;;;5002549;28;20478;-75
2023/07/06 00:06:00;;;;;;;8.30;3.43;;;15.20;99.90;;;;;;5005961;28;20520;-77
2023/07/06 00:08:27;;;;;;;4.13;3.03;;;15.30;99.90;;;;;;5014194;28;20450;-75
2023/07/06 00:10:54;;;;;;;6.00;3.57;;;15.30;99.90;;;;;;5002408;28;20441;-75
2023/07/06 00:13:22;;;;;;;5.20;3.27;;;15.40;99.90;;;;;;4997156;28;20433;-75
2023/07/06 00:15:51;;;;;;;4.20;3.60;;;15.50;99.90;;;;;;4994193;28;20436;-75
2023/07/06 00:18:20;;;;;;;6.10;3.57;;;15.50;99.90;;;;;;4999391;28;20434;-75
2023/07/06 00:20:49;;;;;;;5.70;3.03;;;15.60;99.90;;;;;;5001500;28;20437;-76
2023/07/06 00:23:16;;;;;;;5.30;3.37;;;15.60;99.90;;;;;;5005781;28;20429;-75
2023/07/06 00:25:43;;;;;;;6.20;2.80;;;15.70;99.90;;;;;;5004331;28;20942;-75
2023/07/06 00:28:11;;;;;;;6.60;3.30;;;15.70;99.90;;;;;;4997555;28;20564;-75
2023/07/06 00:30:55;;;;;;;5.03;3.20;;;15.80;99.90;;;;;;4995049;28;20454;-75
2023/07/06 00:33:25;;;;;;;4.00;3.10;;;15.80;99.90;;;;;;4997572;28;20451;-75
2023/07/06 00:35:51;;;;;;;4.13;3.23;;;15.80;99.90;;;;;;5012525;28;20765;-75
2023/07/06 00:38:20;;;;;;;6.33;3.20;;;15.80;99.90;;;;;;5009726;28;20421;-75
2023/07/06 00:40:49;;;;;;;3.60;3.00;;;15.80;99.90;;;;;;4995107;28;20430;-75
2023/07/06 00:43:18;;;;;;;5.10;3.03;;;15.80;99.90;;;;;;4999486;28;20888;-75
2023/07/06 00:45:46;;;;;;;5.10;3.07;;;15.80;99.90;;;;;;4996248;28;20475;-75
2023/07/06 00:48:18;;;;;;;6.70;3.17;;;15.80;99.90;;;;;;5003051;28;21160;-75
2023/07/06 00:50:48;;;;;;;5.20;2.80;;;15.80;99.90;;;;;;5001119;28;20435;-75
2023/07/06 00:53:17;;;;;;;4.57;3.13;;;15.80;99.90;;;;;;5002265;28;20441;-76
2023/07/06 00:55:44;;;;;;;6.33;3.53;;;15.70;99.90;;;;;;5000126;28;20441;-75
2023/07/06 00:58:15;;;;;;;7.20;3.03;;;15.70;99.90;;;;;;4993790;28;20427;-75
2023/07/06 01:00:44;;;;;;;4.20;3.13;;;15.70;99.90;;;;;;4993595;28;20455;-75
2023/07/06 01:03:11;;;;;;;5.93;2.90;;;15.70;99.90;;;;;;5006111;28;20994;-75
2023/07/06 01:05:40;;;;;;;3.10;2.80;;;15.60;99.90;;;;;;5012870;28;20432;-75
2023/07/06 01:08:12;;;;;;;4.30;3.00;;;15.60;99.90;;;;;;5009817;28;20896;-75
2023/07/06 01:10:40;;;;;;;3.87;3.57;;;15.60;99.90;;;;;;4995620;28;20533;-75
2023/07/06 01:13:07;;;;;;;3.80;3.50;;;15.50;99.90;;;;;;4994546;28;20997;-75
2023/07/06 01:15:54;;;;;;;7.73;3.33;;;15.40;99.90;;;;;;5000977;28;20432;-75
2023/07/06 01:18:28;;;;;;;3.83;3.20;;;15.20;99.90;;;;;;4998977;28;21014;-75
2023/07/06 01:21:02;;;;;;;3.27;3.00;;;15.20;99.90;;;;;;5001643;28;20945;-75
2023/07/06 01:24:07;;;;;;;7.30;3.80;;;15.00;99.90;;;;;;4996765;28;20450;-75
2023/07/06 01:26:54;;;;;;;4.97;2.90;;;14.90;99.90;;;;;;5008627;28;20433;-75
2023/07/06 01:30:00;;;;;;;7.23;3.50;;;14.80;99.90;;;;;;5012928;28;20535;-75
2023/07/06 01:32:32;;;;;;;8.50;3.70;;;14.70;99.90;;;;;;4999782;28;20432;-75
2023/07/06 01:35:03;;;;;;;4.20;3.80;;;14.60;99.90;;;;;;4994318;28;20988;-75
2023/07/06 01:37:35;;;;;;;4.83;3.30;;;14.60;99.90;;;;;;4996614;28;20870;-75
2023/07/06 01:40:04;;;;;;;4.30;3.60;;;14.60;99.90;;;;;;4998141;28;20522;-75
2023/07/06 01:42:34;;;;;;;3.20;2.90;;;14.50;99.90;;;;;;4998963;28;21062;-75
2023/07/06 01:45:04;;;;;;;5.23;3.20;;;14.50;99.90;;;;;;4993296;28;20479;-75
2023/07/06 01:47:36;;;;;;;3.77;3.47;;;14.50;99.90;;;;;;4999270;28;20838;-75
2023/07/06 01:50:04;;;;;;;4.10;3.30;;;14.40;99.90;;;;;;4999898;28;20767;-75
2023/07/06 01:52:57;;;;;;;5.60;3.80;;;14.40;99.90;;;;;;5012585;28;20452;-75
2023/07/06 01:55:28;;;;;;;3.50;3.20;;;14.40;99.90;;;;;;5011938;28;20520;-75
2023/07/06 01:58:04;;;;;;;6.03;3.53;;;14.30;99.90;;;;;;5002624;28;20521;-75
2023/07/06 02:00:31;;;;;;;10.00;3.40;;;14.30;99.90;;;;;;4996618;28;20430;-75
2023/07/06 02:03:01;;;;;;;3.70;3.10;;;14.20;99.90;;;;;;4998675;28;20553;-75
2023/07/06 02:05:28;;;;;;;4.43;3.30;;;14.10;99.90;;;;;;5003904;28;20450;-75
2023/07/06 02:07:56;;;;;;;7.67;3.67;;;14.10;99.90;;;;;;4999604;28;20462;-75
2023/07/06 02:10:22;;;;;;;4.67;3.87;;;14.00;99.90;;;;;;4992532;28;20459;-75
2023/07/06 02:12:49;;;;;;;3.90;3.50;;;13.90;99.90;;;;;;4993780;28;20960;-75
2023/07/06 02:15:18;;;;;;;3.97;3.57;;;13.90;99.90;;;;;;4999445;28;20505;-75
2023/07/06 02:17:45;;;;;;;4.00;3.57;;;13.90;99.90;;;;;;5008307;28;20973;-75
2023/07/06 02:20:15;;;;;;;8.00;3.37;;;13.80;99.90;;;;;;5007920;28;20521;-75
2023/07/06 02:22:41;;;;;;;5.30;3.60;;;13.80;99.90;;;;;;4999919;28;20490;-75
2023/07/06 02:25:08;;;;;;;4.83;3.70;;;13.80;99.90;;;;;;4992503;28;20491;-75
2023/07/06 02:27:36;;;;;;;4.40;3.50;;;13.80;99.90;;;;;;5000568;28;20503;-75
2023/07/06 02:30:04;;;;;;;9.53;3.53;;;13.80;99.90;;;;;;5001965;28;20441;-75
2023/07/06 02:32:32;;;;;;;5.67;3.77;;;13.80;99.90;;;;;;5003231;28;20444;-75
2023/07/06 02:34:58;;;;;;;6.80;3.40;;;13.80;99.90;;;;;;4991949;28;20502;-75
2023/07/06 02:37:26;;;;;;;4.93;3.90;;;13.80;99.90;;;;;;4991676;28;20451;-75
2023/07/06 02:39:53;;;;;;;6.20;3.37;;;13.80;99.90;;;;;;4993101;28;20513;-75
2023/07/06 02:42:21;;;;;;;8.60;4.00;;;13.70;99.90;;;;;;5010913;28;21056;-75
2023/07/06 02:44:48;;;;;;;5.90;3.27;;;13.60;99.90;;;;;;5004241;28;21046;-75
2023/07/06 02:47:14;;;;;;;8.73;4.10;;;13.60;99.90;;;;;;5007683;28;20459;-75
2023/07/06 02:49:41;;;;;;;4.40;3.63;;;13.50;99.90;;;;;;4994889;28;20521;-75
2023/07/06 02:52:08;;;;;;;7.00;4.20;;;13.30;99.90;;;;;;4991800;28;20443;-75
2023/07/06 02:54:37;;;;;;;5.43;3.90;;;13.10;99.90;;;;;;5000128;28;20483;-75
2023/07/06 02:57:04;;;;;;;4.10;3.80;;;12.90;99.90;;;;;;5000623;28;20494;-75
2023/07/06 02:59:31;;;;;;;5.23;3.90;;;12.70;99.90;;;;;;5003051;28;20459;-75
2023/07/06 03:01:57;;;;;;;11.53;4.60;;;12.60;99.90;;;;;;4990986;28;20483;-75
2023/07/06 03:04:25;;;;;;;6.50;4.40;;;12.50;99.90;;;;;;4994090;28;21222;-75
2023/07/06 03:06:55;;;;;;;5.30;3.90;;;12.40;99.90;;;;;;4991965;28;20810;-75
2023/07/06 03:09:23;;;;;;;9.53;4.50;;;12.40;99.90;;;;;;5011246;28;20886;-75
2023/07/06 03:11:52;;;;;;;4.27;3.60;;;12.40;99.90;;;;;;5010788;28;20466;-75
2023/07/06 03:14:21;;;;;;;6.73;4.03;;;12.30;99.90;;;;;;5009187;28;20516;-75
2023/07/06 03:16:48;;;;;;;7.93;4.07;;;12.40;99.90;;;;;;4994321;28;20995;-75
2023/07/06 03:19:15;;;;;;;4.43;4.03;;;12.40;99.90;;;;;;4991514;28;20862;-75
2023/07/06 03:21:42;;;;;;;6.80;3.73;;;12.40;99.90;;;;;;4995412;28;20534;-75
2023/07/06 03:24:09;;;;;;;11.93;4.27;;;12.40;99.90;;;;;;4999411;28;20482;-75
2023/07/06 03:26:39;;;;;;;6.37;4.30;;;12.50;99.90;;;;;;4997474;28;20475;-75
2023/07/06 03:29:09;;;;;;;6.03;3.70;;;12.50;99.90;;;;;;4991737;28;20468;-75
2023/07/06 03:31:36;;;;;;;5.50;4.13;;;12.50;99.90;;;;;;4999595;28;20487;-75
2023/07/06 03:34:05;;;;;;;4.83;3.80;;;12.60;99.90;;;;;;4993542;28;20472;-75
2023/07/06 03:36:33;;;;;;;6.43;4.87;;;12.60;99.90;;;;;;5011169;28;20465;-75
2023/07/06 03:39:00;;;;;;;5.27;4.73;;;12.60;99.90;;;;;;5006189;28;20466;-75
2023/07/06 03:41:27;;;;;;;5.20;4.37;;;12.70;99.90;;;;;;5005483;28;20619;-75
2023/07/06 03:43:56;;;;;;;5.33;3.83;;;12.70;99.90;;;;;;4991225;28;20832;-75
2023/07/06 03:46:24;;;;;;;4.37;3.60;;;12.70;99.90;;;;;;4998276;28;20455;-75
2023/07/06 03:48:51;;;;;;;8.80;3.77;;;12.70;99.90;;;;;;4996707;28;21166;-75
2023/07/06 03:51:18;;;;;;;5.77;3.97;;;12.70;99.90;;;;;;4997964;28;20486;-75
2023/07/06 03:53:47;;;;;;;4.37;3.97;;;12.70;99.90;;;;;;4998721;28;20470;-75
2023/07/06 03:56:18;;;;;;;4.43;4.00;;;12.70;99.90;;;;;;4995446;28;20546;-75
2023/07/06 03:58:45;;;;;;;7.83;3.93;;;12.80;99.90;;;;;;4999190;28;20458;-74
2023/07/06 04:01:11;;;;;;;6.33;4.30;;;12.80;99.90;;;;;;4999598;28;20968;-75
2023/07/06 04:03:44;;;;;;;4.10;3.70;;;12.70;99.90;;;;;;5000663;28;20543;-75
2023/07/06 04:06:10;;;;;;;8.23;4.80;;;12.80;99.90;;;;;;5008760;28;20505;-75
2023/07/06 04:08:37;;;;;;;4.57;4.17;;;12.70;99.90;;;;;;5005202;28;20458;-75
2023/07/06 04:11:04;;;;;;;8.33;4.33;;;12.70;99.90;;;;;;5009986;28;20504;-75
2023/07/06 04:13:31;;;;;;;12.00;4.50;;;12.70;99.90;;;;;;5012425;28;20854;-75
2023/07/06 04:15:58;;;;;;;6.87;4.60;;;12.60;99.90;;;;;;5007443;28;20463;-75
2023/07/06 04:18:24;;;;;;;5.83;4.63;;;12.50;99.90;;;;;;5014182;28;20450;-75
2023/07/06 04:20:54;;;;;;;5.00;4.50;;;12.50;99.90;;;;;;5013279;28;20477;-75
2023/07/06 04:23:21;;;;;;;7.37;4.17;;;12.50;99.90;;;;;;5004773;28;20486;-75
2023/07/06 04:25:48;;;;;;;10.80;5.10;;;12.50;99.90;;;;;;5014197;28;20454;-75
2023/07/06 04:28:15;;;;;;;6.60;4.40;;;12.40;99.90;;;;;;5013757;28;20457;-75
2023/07/06 04:30:44;;;;;;;4.60;4.10;;;12.50;99.90;;;;;;5011982;28;20935;-75
2023/07/06 04:33:15;;;;;;;12.90;4.20;;;12.40;99.90;;;;;;5008324;28;20454;-73
2023/07/06 04:35:42;;;;;;;5.03;3.90;;;12.60;99.90;;;;;;5013381;28;20458;-73
2023/07/06 04:38:11;;;;;;;5.73;4.40;;;13.10;99.90;;;;;;5010080;28;20503;-73
2023/07/06 04:40:41;;;;;;;4.07;3.57;;;13.50;99.90;;;;;;5013798;28;20454;-73
2023/07/06 04:43:08;;;;;;;5.13;3.80;;;13.90;99.90;;;;;;5010070;28;20497;-73
2023/07/06 04:45:36;;;;;;;4.27;3.50;;;14.30;99.90;;;;;;5010901;28;20505;-73
2023/07/06 04:48:05;;;;;;;6.80;3.77;;;14.60;99.90;;;;;;5004855;28;20458;-73
2023/07/06 04:50:31;;;;;;;4.90;3.13;;;14.90;99.90;;;;;;5011696;28;20470;-73
2023/07/06 04:53:01;;;;;;;6.00;3.63;;;15.10;99.90;;;;;;5010975;28;20450;-73
2023/07/06 04:55:31;;;;;;;7.90;3.87;;;15.20;99.90;;;;;;5011023;28;20466;-73
2023/07/06 04:57:59;;;;;;;4.37;3.80;;;15.40;99.90;;;;;;5012222;28;21001;-73
2023/07/06 05:00:29;;;;;;;3.93;3.60;;;15.40;99.90;;;;;;5013253;28;20454;-73
2023/07/06 05:02:58;;;;;;;4.63;3.50;;;15.50;99.90;;;;;;5011910;28;20984;-73
2023/07/06 05:05:26;;;;;;;6.13;3.90;;;15.70;99.90;;;;;;5009222;28;20528;-73
2023/07/06 05:07:53;;;;;;;5.20;3.97;;;15.70;99.90;;;;;;5011138;28;20425;-73
2023/07/06 05:10:20;;;;;;;5.17;3.67;;;15.80;99.90;;;;;;5009989;28;20933;-73
2023/07/06 05:12:48;;;;;;;5.83;3.77;;;15.90;99.90;;;;;;5006837;28;20822;-73
2023/07/06 05:15:15;;;;;;;4.97;3.60;;;16.00;99.90;;;;;;5012349;28;20448;-73
2023/07/06 05:17:42;;;;;;;3.53;3.20;;;16.00;99.90;;;;;;5012430;28;20458;-73
2023/07/06 05:20:13;;;;;;;5.83;4.30;;;16.00;99.90;;;;;;5009024;28;20426;-73
2023/07/06 05:22:40;;;;;;;4.37;3.67;;;16.10;99.90;;;;;;5011102;28;20514;-71
2023/07/06 05:25:08;;;;;;;6.50;3.30;;;16.20;99.90;;;;;;5011130;28;20503;-72
2023/07/06 05:27:35;;;;;;;13.67;4.03;;;16.20;99.90;;;;;;5005177;28;20871;-71
2023/07/06 05:30:05;;;;;;;4.53;4.00;;;16.30;99.90;;;;;;5002681;28;20429;-71
2023/07/06 05:32:31;;;;;;;7.20;4.17;;;16.30;99.90;;;;;;5005595;28;20462;-71
2023/07/06 05:34:58;;;;;;;7.20;3.53;;;16.40;99.90;;;;;;5001887;28;20518;-71
2023/07/06 05:37:25;;;;;;;6.83;3.90;;;16.50;99.90;;;;;;5002898;28;20420;-71
2023/07/06 05:39:52;;;;;;;4.73;3.50;;;16.70;99.90;;;;;;5018612;28;20429;-71
2023/07/06 05:42:19;;;;;;;8.17;3.73;;;16.80;99.90;;;;;;5017467;28;20813;-71
2023/07/06 05:44:45;;;;;;;6.00;3.70;;;16.90;99.90;;;;;;5017330;28;20464;-71
2023/07/06 05:47:14;;;;;;;7.77;3.60;;;17.10;99.90;;;;;;5018082;28;20503;-71
2023/07/06 05:49:40;;;;;;;5.80;3.73;;;17.20;99.90;;;;;;5018673;28;20454;-71
2023/07/06 05:52:08;;;;;;;6.43;4.13;;;17.30;99.90;;;;;;5018226;28;20492;-71
2023/07/06 05:54:34;;;;;;;4.87;3.50;;;17.30;99.90;;;;;;5018286;28;20519;-71
2023/07/06 05:57:02;;;;;;;6.07;3.83;;;17.20;99.90;;;;;;5018106;28;20475;-71
2023/07/06 05:59:29;;;;;;;9.20;4.53;;;17.30;99.90;;;;;;5018546;28;20429;-71
2023/07/06 06:01:57;;;;;;;5.17;4.30;;;17.50;99.90;;;;;;5017769;28;20468;-71
2023/07/06 06:04:26;;;;;;;4.27;3.43;;;17.70;99.90;;;;;;5017756;28;20867;-71
2023/07/06 06:06:55;;;;;;;9.10;4.47;;;17.80;99.90;;;;;;5017365;28;20450;-71
2023/07/06 06:09:23;;;;;;;6.60;4.53;;;17.70;99.90;;;;;;5017912;28;20428;-71
2023/07/06 06:11:50;;;;;;;5.57;4.00;;;17.80;99.90;;;;;;5017018;28;20516;-70
2023/07/06 06:14:17;;;;;;;4.53;3.93;;;17.80;99.90;;;;;;5015895;28;20532;-69
2023/07/06 06:16:44;;;;;;;4.80;4.07;;;17.80;99.90;;;;;;5014440;28;20470;-71
2023/07/06 06:19:11;;;;;;;6.10;4.33;;;17.90;99.90;;;;;;5016612;28;20445;-70
2023/07/06 06:21:39;;;;;;;7.23;4.50;;;18.10;99.90;;;;;;5017342;28;20468;-70
2023/07/06 06:24:08;;;;;;;6.90;3.90;;;18.10;99.90;;;;;;5016743;28;20555;-70
2023/07/06 06:26:35;;;;;;;6.90;3.90;;;18.00;99.90;;;;;;5015943;28;20444;-70
2023/07/06 06:29:02;;;;;;;7.63;3.50;;;17.90;99.90;;;;;;5017581;28;20932;-70
2023/07/06 06:31:29;;;;;;;12.07;4.53;;;17.90;99.90;;;;;;5016846;28;20425;-71
2023/07/06 06:33:55;;;;;;;5.83;3.57;;;18.00;99.90;;;;;;5016277;28;20533;-70
2023/07/06 06:36:23;;;;;;;12.20;4.10;;;18.10;99.90;;;;;;5017245;28;20454;-70
2023/07/06 06:38:51;;;;;;;9.60;3.90;;;18.10;99.90;;;;;;5016569;28;20806;-71
2023/07/06 06:41:18;;;;;;;9.93;4.13;;;18.30;99.90;;;;;;5016889;28;20451;-70
2023/07/06 06:43:45;;;;;;;4.00;3.30;;;18.40;99.90;;;;;;5017209;28;21225;-70
2023/07/06 06:46:13;;;;;;;12.07;4.17;;;18.50;99.90;;;;;;5016339;28;20509;-70
2023/07/06 06:48:40;;;;;;;6.30;3.47;;;18.80;99.90;;;;;;5016759;28;20425;-70
2023/07/06 06:51:08;;;;;;;9.23;3.80;;;18.90;99.90;;;;;;5016922;28;20445;-70
2023/07/06 06:53:37;;;;;;;7.03;3.80;;;19.10;99.90;;;;;;5017464;28;20481;-71
2023/07/06 06:56:06;;;;;;;4.43;3.30;;;19.40;99.90;;;;;;5016929;28;20455;-70
2023/07/06 06:58:32;;;;;;;8.80;2.93;;;19.60;99.90;;;;;;5014938;28;20450;-71
2023/07/06 07:01:00;;;;;;;7.30;3.40;;;19.90;99.90;;;;;;5016854;28;20446;-70
2023/07/06 07:03:27;;;;;;;5.00;3.30;;;20.00;99.90;;;;;;5016035;28;20954;-70
2023/07/06 07:05:59;;;;;;;3.40;2.70;;;19.90;99.90;;;;;;5016944;28;20465;-71
2023/07/06 07:08:26;;;;;;;5.27;3.20;;;20.10;99.90;;;;;;5015815;28;20454;-71
2023/07/06 07:10:53;;;;;;;4.23;2.67;;;20.30;99.90;;;;;;5017149;28;20468;-71
2023/07/06 07:13:22;;;;;;;4.57;3.10;;;20.40;99.90;;;;;;5016996;28;20481;-71
2023/07/06 07:15:49;;;;;;;6.20;2.73;;;20.40;99.90;;;;;;5016401;28;20549;-71
2023/07/06 07:18:16;;;;;;;3.00;2.70;;;20.10;99.90;;;;;;5015618;28;20458;-72
2023/07/06 07:20:43;;;;;;;4.87;3.10;;;20.30;99.90;;;;;;5016114;28;20462;-72
2023/07/06 07:23:10;;;;;;;6.00;2.20;;;20.70;99.90;;;;;;5016566;28;20488;-71
2023/07/06 07:25:41;;;;;;;2.00;1.90;;;21.10;99.90;;;;;;5015803;28;20458;-71
2023/07/06 07:28:07;;;;;;;3.30;1.93;;;21.40;99.90;;;;;;5016578;28;20460;-71
2023/07/06 07:30:35;;;;;;;2.73;2.00;;;21.50;99.90;;;;;;5017220;28;20454;-72
2023/07/06 07:33:03;;;;;;;3.20;2.00;;;21.20;99.90;;;;;;5016805;28;20520;-72
2023/07/06 07:35:30;;;;;;;3.30;2.13;;;21.20;99.90;;;;;;5016590;28;21183;-71
2023/07/06 07:37:57;;;;;;;3.60;1.77;;;21.30;99.90;;;;;;5017115;28;20450;-71
2023/07/06 07:40:23;;;;;;;4.03;2.00;;;21.20;99.90;;;;;;5016673;28;20535;-71
2023/07/06 07:42:50;;;;;;;2.10;1.80;;;21.30;99.90;;;;;;5016849;28;21302;-72
2023/07/06 07:45:18;;;;;;;3.20;2.10;;;21.30;99.90;;;;;;5016152;28;20489;-71
2023/07/06 07:47:47;;;;;;;3.93;2.17;;;21.30;99.90;;;;;;5017233;28;20488;-71
2023/07/06 07:50:13;;;;;;;4.37;1.80;;;21.10;99.90;;;;;;5020001;28;20449;-71
2023/07/06 07:52:40;;;;;;;2.57;1.90;;;21.20;99.90;;;;;;5019229;28;20450;-71
2023/07/06 07:55:09;;;;;;;4.00;2.00;;;21.40;99.90;;;;;;5017663;28;20531;-71
2023/07/06 07:57:37;;;;;;;3.40;1.90;;;21.40;99.90;;;;;;5017792;28;20472;-71
2023/07/06 08:00:07;;;;;;;2.23;1.67;;;21.50;99.90;;;;;;5020019;28;20458;-71
2023/07/06 08:02:33;;;;;;;1.70;1.60;;;21.80;99.90;;;;;;5021067;28;20456;-72
2023/07/06 08:05:04;;;;;;;2.53;1.70;;;22.20;99.90;;;;;;5019850;28;20546;-72
2023/07/06 08:07:33;;;;;;;2.03;1.80;;;22.50;99.90;;;;;;5019481;28;20853;-72
2023/07/06 08:09:59;;;;;;;2.80;1.70;;;22.50;99.90;;;;;;5020812;28;20541;-72
2023/07/06 08:12:26;;;;;;;2.37;1.80;;;22.40;99.90;;;;;;5019280;28;20474;-72
2023/07/06 08:14:53;;;;;;;2.20;1.87;;;22.70;99.90;;;;;;5020440;28;20523;-72
2023/07/06 08:17:20;;;;;;;3.13;2.63;;;22.90;99.90;;;;;;5019824;28;20453;-72
2023/07/06 08:19:47;;;;;;;3.33;1.83;;;22.80;99.90;;;;;;5020328;28;20449;-70
2023/07/06 08:22:16;;;;;;;2.97;2.00;;;22.90;99.90;;;;;;5019467;28;20457;-72
2023/07/06 08:24:43;;;;;;;2.00;1.80;;;22.90;99.90;;;;;;5019303;28;20892;-71
2023/07/06 08:27:11;;;;;;;3.53;2.30;;;22.90;99.90;;;;;;5019920;28;20470;-72
2023/07/06 08:29:42;;;;;;;2.00;1.90;;;22.90;99.90;;;;;;5020406;28;20457;-70
2023/07/06 08:32:11;;;;;;;4.40;1.70;;;23.10;99.90;;;;;;5019465;28;20466;-71
2023/07/06 08:34:38;;;;;;;4.67;2.03;;;23.30;99.90;;;;;;5019351;28;20473;-72
2023/07/06 08:37:05;;;;;;;3.70;1.67;;;23.40;99.90;;;;;;5019985;28;20454;-71
2023/07/06 08:39:33;;;;;;;2.00;1.60;;;23.30;99.90;;;;;;5019941;28;20546;-72
2023/07/06 08:42:01;;;;;;;1.97;1.50;;;23.50;99.90;;;;;;5019769;28;20445;-71
2023/07/06 08:44:28;;;;;;;4.97;1.70;;;23.60;99.90;;;;;;5019173;28;20540;-72
2023/07/06 08:46:55;;;;;;;1.83;1.70;;;23.80;99.90;;;;;;5019115;28;20517;-71
2023/07/06 08:49:28;;;;;;;4.33;2.10;;;24.00;99.90;;;;;;5019349;28;20454;-71
2023/07/06 08:51:55;;;;;;;2.00;1.80;;;23.90;99.90;;;;;;5019473;28;20866;-71
2023/07/06 08:54:25;;;;;;;8.83;1.73;;;24.10;99.90;;;;;;5019210;28;20470;-71
2023/07/06 08:56:53;;;;;;;2.50;1.93;;;24.30;99.90;;;;;;5018790;28;20931;-71
2023/07/06 08:59:34;;;;;;;3.23;1.70;;;24.50;99.90;;;;;;5019413;28;20541;-71
2023/07/06 09:02:10;;;;;;;2.23;2.00;;;24.00;99.90;;;;;;5019003;28;20445;-72
2023/07/06 09:04:38;;;;;;;2.53;1.57;;;23.40;99.90;;;;;;5018397;28;20546;-72
2023/07/06 09:07:12;;;;;;;2.00;1.80;;;23.20;99.90;;;;;;5019146;28;20453;-71
2023/07/06 09:09:40;;;;;;;2.30;1.80;;;23.00;99.90;;;;;;5019534;28;20453;-72
2023/07/06 09:12:17;;;;;;;4.90;1.47;;;23.40;99.90;;;;;;5018995;28;21418;-71
2023/07/06 09:14:46;;;;;;;2.20;1.80;;;23.60;99.90;;;;;;5019108;28;20473;-72
2023/07/06 09:17:17;;;;;;;3.30;2.07;;;23.50;99.90;;;;;;5018475;28;20458;-71
2023/07/06 09:19:44;;;;;;;2.10;1.90;;;23.20;99.90;;;;;;5018824;28;20483;-72
2023/07/06 09:22:11;;;;;;;2.37;1.80;;;23.10;99.90;;;;;;5019046;28;20487;-71
2023/07/06 09:24:38;;;;;;;2.13;1.70;;;23.00;99.90;;;;;;5018975;28;20498;-72
2023/07/06 09:27:10;;;;;;;1.93;1.67;;;23.00;99.90;;;;;;5018405;28;20454;-72
2023/07/06 09:29:38;;;;;;;1.90;1.80;;;22.70;99.90;;;;;;5018473;28;20461;-72
2023/07/06 09:32:11;;;;;;;3.57;2.00;;;22.70;99.90;;;;;;5018718;28;20463;-72
2023/07/06 09:34:41;;;;;;;2.70;1.70;;;22.90;99.90;;;;;;5018911;28;20985;-73
2023/07/06 09:37:12;;;;;;;3.47;1.57;;;23.30;99.90;;;;;;5018335;28;20871;-71
2023/07/06 09:39:39;;;;;;;2.73;1.67;;;23.80;99.90;;;;;;5018340;28;20449;-71
2023/07/06 09:42:09;;;;;;;5.00;1.60;;;24.10;99.90;;;;;;5018444;28;20454;-71
2023/07/06 09:44:36;;;;;;;2.40;1.77;;;24.40;99.90;;;;;;5019085;28;20494;-71
2023/07/06 09:47:11;;;;;;;2.37;1.50;;;24.70;99.90;;;;;;5017677;28;21011;-71
2023/07/06 09:49:43;;;;;;;1.93;1.57;;;25.10;99.90;;;;;;5015963;28;20553;-71
2023/07/06 09:52:12;;;;;;;2.50;1.50;;;24.90;99.90;;;;;;5017524;28;20484;-71
2023/07/06 09:54:46;;;;;;;1.80;1.50;;;24.90;99.70;;;;;;5016094;28;20483;-72
2023/07/06 09:57:15;;;;;;;3.87;1.87;;;24.60;99.90;;;;;;5015852;28;20969;-71
2023/07/06 09:59:45;;;;;;;1.57;1.47;;;25.10;99.60;;;;;;5016066;28;20924;-71
2023/07/06 10:02:25;;;;;;;3.03;1.67;;;25.50;99.60;;;;;;5016888;28;20500;-71
2023/07/06 10:05:00;;;;;;;1.73;1.40;;;25.50;98.60;;;;;;5017264;28;20527;-71
2023/07/06 10:07:33;;;;;;;1.60;1.47;;;25.20;98.60;;;;;;5016841;28;21053;-72
2023/07/06 10:10:09;;;;;;;2.13;1.57;;;25.40;97.70;;;;;;5016337;28;20451;-72
2023/07/06 10:12:40;;;;;;;4.70;2.07;;;25.20;97.30;;;;;;5017250;28;20527;-72
2023/07/06 10:15:17;;;;;;;3.97;2.00;;;25.10;97.80;;;;;;5016613;28;20520;-72
2023/07/06 10:17:51;;;;;;;2.03;1.40;;;25.20;96.60;;;;;;5017171;28;20470;-73
2023/07/06 10:20:25;;;;;;;1.50;1.40;;;24.90;96.00;;;;;;5016248;28;20961;-72
2023/07/06 10:23:13;;;;;;;3.73;1.53;;;24.90;96.40;;;;;;5017794;28;20446;-72
2023/07/06 10:25:50;;;;;;;1.60;1.50;;;25.20;97.00;;;;;;5016875;28;21093;-73
2023/07/06 10:28:20;;;;;;;9.43;1.70;;;25.70;96.60;;;;;;5016890;28;20457;-72
2023/07/06 10:30:50;;;;;;;1.83;1.43;;;26.00;95.60;;;;;;5016850;28;20462;-72
2023/07/06 10:33:24;;;;;;;2.80;1.90;;;26.40;95.20;;;;;;5016662;28;20458;-73
2023/07/06 10:35:52;;;;;;;3.33;1.63;;;26.50;94.30;;;;;;5017918;28;20522;-72
2023/07/06 10:38:19;;;;;;;1.43;1.33;;;25.90;94.10;;;;;;5017040;28;20477;-72
2023/07/06 10:40:50;;;;;;;3.83;1.33;;;25.60;94.80;;;;;;5017397;28;20447;-72
2023/07/06 10:43:23;;;;;;;4.80;1.70;;;25.40;94.40;;;;;;5017076;28;20450;-71
2023/07/06 10:45:52;;;;;;;1.63;1.53;;;25.10;94.30;;;;;;5016084;28;20896;-71
2023/07/06 10:48:31;;;;;;;3.00;1.97;;;25.10;95.10;;;;;;5016190;28;20461;-72
2023/07/06 10:51:23;;;;;;;2.60;1.40;;;25.60;95.00;;;;;;5016537;28;20449;-72
2023/07/06 10:54:02;;;;;;;2.77;1.57;;;25.40;94.00;;;;;;5000131;28;21063;-71
2023/07/06 10:56:30;;;;;;;2.27;1.30;;;25.10;94.70;;;;;;5016811;28;20446;-72
2023/07/06 10:58:59;;;;;;;2.53;1.40;;;25.40;94.50;;;;;;5014567;28;20535;-72
2023/07/06 11:01:31;;;;;;;2.07;1.50;;;25.80;94.40;;;;;;5016211;28;20501;-72
2023/07/06 11:04:02;;;;;;;2.50;1.63;;;26.00;94.20;;;;;;5016749;28;20473;-71
2023/07/06 11:07:02;;;;;;;2.60;1.50;;;25.80;94.10;;;;;;5016551;28;20581;-72
2023/07/06 11:09:29;;;;;;;1.40;1.30;;;25.30;94.50;;;;;;4974301;28;20510;-71
2023/07/06 11:12:18;;;;;;;3.47;1.60;;;25.00;94.30;;;;;;4973376;28;20476;-71
2023/07/06 11:14:47;;;;;;;4.23;1.60;;;24.70;94.80;;;;;;4999869;28;20470;-70
2023/07/06 11:17:22;;;;;;;1.70;1.60;;;24.40;94.60;;;;;;5015719;28;20578;-70
2023/07/06 11:19:54;;;;;;;2.00;1.53;;;24.40;95.30;;;;;;5016215;28;20453;-72
2023/07/06 11:22:24;;;;;;;5.00;1.90;;;24.80;94.80;;;;;;5018413;28;20441;-71
2023/07/06 11:24:55;;;;;;;4.67;2.10;;;24.80;95.30;;;;;;5020310;28;21006;-72
2023/07/06 11:27:26;;;;;;;3.30;1.90;;;24.30;95.10;;;;;;5020547;28;20545;-72
2023/07/06 11:30:02;;;;;;;2.93;1.60;;;24.40;96.10;;;;;;5020404;28;20460;-71
2023/07/06 11:32:36;;;;;;;2.20;1.50;;;24.70;95.60;;;;;;5020005;28;20578;-70
2023/07/06 11:35:24;;;;;;;2.63;1.40;;;25.20;94.90;;;;;;5020449;28;20470;-70
2023/07/06 11:38:05;;;;;;;4.40;1.80;;;25.70;94.20;;;;;;5019884;28;21056;-73
2023/07/06 11:40:43;;;;;;;2.80;1.30;;;25.90;93.90;;;;;;5020482;28;20473;-71
2023/07/06 11:43:25;;;;;;;1.70;1.60;;;26.40;94.50;;;;;;5020038;28;20453;-71
2023/07/06 11:46:00;;;;;;;2.50;1.80;;;27.00;93.40;;;;;;5018689;28;20489;-71
2023/07/06 11:48:35;;;;;;;2.93;1.67;;;27.10;91.60;;;;;;5022285;28;20453;-78
2023/07/06 11:51:04;;;;;;;1.80;1.70;;;26.80;92.00;;;;;;5021828;28;20519;-72
2023/07/06 11:53:42;;;;;;;142.10;128.90;;;26.50;90.90;;;;;;5019888;28;20482;-72
2023/07/06 11:56:20;;;;;;;80.97;73.77;;;26.30;92.40;;;;;;5019979;28;20449;-72
2023/07/06 11:58:55;;;;;;;248.50;221.93;;;26.50;93.20;;;;;;5019696;28;20458;-73
2023/07/06 12:01:40;;;;;;;146.37;88.53;;;26.80;92.80;;;;;;5019132;28;20487;-72
2023/07/06 12:04:13;;;;;;;4.10;2.50;;;26.90;91.00;;;;;;5020057;28;20484;-71
2023/07/06 12:06:42;;;;;;;3.70;1.97;;;26.80;90.60;;;;;;5018905;28;20488;-73
2023/07/06 12:09:09;;;;;;;3.67;1.50;;;27.10;90.70;;;;;;5020407;28;20488;-72
2023/07/06 12:11:38;;;;;;;3.10;1.50;;;27.40;90.70;;;;;;5019932;28;20981;-72
2023/07/06 12:14:09;;;;;;;2.23;1.50;;;27.20;88.30;;;;;;5019203;28;20475;-72
2023/07/06 12:16:40;;;;;;;2.73;1.60;;;27.20;87.10;;;;;;5019269;28;20916;-72
2023/07/06 12:19:10;;;;;;;2.70;1.40;;;27.00;88.50;;;;;;5019229;28;20453;-73
2023/07/06 12:21:42;;;;;;;2.40;1.30;;;26.70;87.40;;;;;;5019220;28;20469;-73
2023/07/06 12:24:13;;;;;;;4.23;2.00;;;26.30;87.40;;;;;;5019991;28;20535;-73
2023/07/06 12:26:45;;;;;;;5.53;1.67;;;26.00;90.10;;;;;;5018718;28;20493;-72
2023/07/06 12:29:14;;;;;;;1.80;1.70;;;26.00;90.60;;;;;;5018356;28;20848;-72
2023/07/06 12:31:41;;;;;;;3.10;1.47;;;25.80;90.30;;;;;;5016570;28;20460;-72
2023/07/06 12:34:08;;;;;;;4.33;1.80;;;25.70;90.00;;;;;;5019119;28;20492;-73
2023/07/06 12:36:39;;;;;;;2.80;1.50;;;25.90;91.00;;;;;;5019020;28;20460;-73
2023/07/06 12:39:09;;;;;;;3.07;1.70;;;26.30;90.80;;;;;;5019249;28;20968;-72
2023/07/06 12:41:37;;;;;;;1.67;1.57;;;26.70;90.20;;;;;;5018332;28;20458;-72
2023/07/06 12:44:06;;;;;;;1.40;1.30;;;26.50;89.40;;;;;;5018007;28;20465;-73
2023/07/06 12:46:34;;;;;;;3.03;1.60;;;26.80;89.60;;;;;;5017621;28;20491;-72
2023/07/06 12:49:05;;;;;;;2.00;1.30;;;27.20;89.90;;;;;;5019548;28;20501;-72
2023/07/06 12:51:32;;;;;;;1.63;1.40;;;27.50;88.60;;;;;;5018794;28;20462;-72
2023/07/06 12:53:59;;;;;;;3.23;1.80;;;27.80;88.30;;;;;;5017939;28;20477;-73
2023/07/06 12:56:31;;;;;;;2.07;1.40;;;27.80;86.90;;;;;;5017982;28;20453;-72
2023/07/06 12:59:01;;;;;;;3.63;1.70;;;27.90;88.20;;;;;;5018333;28;20453;-72